createdAt,value
2023-02-04T00:01:58.058Z,12.67
2023-02-04T00:04:24.692Z,13.80
2023-02-04T00:06:51.176Z,15.50
2023-02-04T00:09:17.578Z,19.53
2023-02-04T00:11:44.874Z,14.33
2023-02-04T00:14:11.750Z,13.87
2023-02-04T00:16:38.154Z,13.73
2023-02-04T00:19:04.587Z,16.27
2023-02-04T00:21:30.989Z,19.43
2023-02-04T00:23:57.403Z,23.13
2023-02-04T00:26:23.887Z,20.47
2023-02-04T00:28:50.290Z,13.07
2023-02-04T00:31:16.821Z,13.00
2023-02-04T00:33:43.833Z,14.27
2023-02-04T00:36:10.425Z,11.37
2023-02-04T00:38:36.850Z,18.20
2023-02-04T00:41:03.528Z,15.40
2023-02-04T00:43:30.030Z,17.27
2023-02-04T00:45:56.550Z,16.17
2023-02-04T00:48:23.031Z,14.50
2023-02-04T00:50:49.443Z,13.17
2023-02-04T00:53:15.833Z,15.20
2023-02-04T00:55:42.271Z,14.73
2023-02-04T00:58:08.742Z,15.50
2023-02-04T01:00:35.218Z,15.77
2023-02-04T01:03:01.767Z,17.37
2023-02-04T01:05:28.217Z,11.30
2023-02-04T01:07:54.868Z,18.67
2023-02-04T01:10:21.294Z,15.47
2023-02-04T01:12:47.832Z,15.90
2023-02-04T01:15:14.569Z,15.73
2023-02-04T01:17:41.789Z,9.53
2023-02-04T01:20:09.683Z,14.10
2023-02-04T01:22:36.197Z,11.43
2023-02-04T01:25:02.710Z,16.00
2023-02-04T01:27:29.198Z,10.43
2023-02-04T01:29:55.596Z,16.87
2023-02-04T01:32:21.984Z,12.67
2023-02-04T01:34:48.368Z,15.70
2023-02-04T01:37:14.831Z,10.90
2023-02-04T01:39:41.271Z,12.70
2023-02-04T01:42:07.804Z,11.37
2023-02-04T01:44:34.247Z,14.77
2023-02-04T01:47:00.796Z,20.97
2023-02-04T01:49:27.706Z,14.00
2023-02-04T01:51:54.117Z,10.67
2023-02-04T01:54:21.991Z,14.40
2023-02-04T01:56:51.592Z,16.33
2023-02-04T01:59:19.060Z,18.60
2023-02-04T02:01:51.307Z,9.53
2023-02-04T02:04:39.350Z,13.50
2023-02-04T02:07:06.625Z,12.40
2023-02-04T02:09:34.282Z,12.07
2023-02-04T02:12:02.453Z,11.10
2023-02-04T02:14:28.870Z,14.33
2023-02-04T02:16:55.323Z,17.77
2023-02-04T02:19:30.871Z,13.97
2023-02-04T02:22:05.127Z,13.30
2023-02-04T02:24:33.827Z,11.70
2023-02-04T02:27:04.718Z,15.80
2023-02-04T02:29:31.240Z,13.27
2023-02-04T02:31:58.795Z,12.27
2023-02-04T02:34:27.312Z,11.27
2023-02-04T02:36:54.233Z,11.80
2023-02-04T02:39:21.562Z,14.77
2023-02-04T02:41:48.205Z,12.90
2023-02-04T02:44:16.714Z,9.57
2023-02-04T02:46:43.295Z,7.17
2023-02-04T02:49:15.922Z,9.73
2023-02-04T02:51:43.695Z,13.23
2023-02-04T02:54:34.083Z,10.70
2023-02-04T02:57:00.566Z,10.03
2023-02-04T02:59:27.693Z,9.50
2023-02-04T03:02:02.031Z,9.83
2023-02-04T03:04:31.959Z,14.50
2023-02-04T03:06:58.751Z,14.77
2023-02-04T03:09:27.548Z,9.13
2023-02-04T03:11:54.288Z,12.33
2023-02-04T03:14:22.391Z,12.23
2023-02-04T03:16:48.964Z,14.60
2023-02-04T03:19:15.794Z,13.67
2023-02-04T03:21:42.826Z,16.43
2023-02-04T03:24:09.579Z,15.67
2023-02-04T03:26:36.067Z,9.60
2023-02-04T03:29:02.699Z,14.20
2023-02-04T03:31:29.176Z,18.60
2023-02-04T03:33:55.601Z,12.97
2023-02-04T03:36:22.418Z,13.50
2023-02-04T03:38:48.881Z,14.43
2023-02-04T03:41:15.259Z,11.70
2023-02-04T03:43:41.662Z,9.43
2023-02-04T03:46:08.074Z,17.70
2023-02-04T03:48:34.466Z,11.37
2023-02-04T03:51:00.897Z,13.47
2023-02-04T03:53:27.431Z,19.10
2023-02-04T03:55:53.893Z,13.10
2023-02-04T03:58:21.435Z,13.20
2023-02-04T04:00:47.863Z,14.90
2023-02-04T04:03:14.305Z,12.10
2023-02-04T04:05:40.740Z,11.50
2023-02-04T04:08:07.354Z,10.80
2023-02-04T04:10:34.119Z,16.27
2023-02-04T04:13:00.715Z,13.80
2023-02-04T04:15:27.223Z,19.53
2023-02-04T04:17:53.582Z,13.03
2023-02-04T04:20:20.139Z,13.60
2023-02-04T04:22:46.518Z,15.23
2023-02-04T04:25:12.903Z,16.47
2023-02-04T04:27:39.418Z,18.20
2023-02-04T04:30:06.147Z,15.77
2023-02-04T04:32:32.552Z,11.23
2023-02-04T04:34:59.006Z,17.40
2023-02-04T04:37:25.427Z,19.47
2023-02-04T04:39:51.913Z,12.53
2023-02-04T04:42:18.288Z,11.93
2023-02-04T04:44:44.684Z,25.60
2023-02-04T04:47:11.315Z,18.77
2023-02-04T04:49:37.698Z,18.30
2023-02-04T04:52:04.385Z,21.70
2023-02-04T04:54:30.822Z,17.03
2023-02-04T04:56:57.248Z,13.10
2023-02-04T04:59:23.637Z,18.53
2023-02-04T05:01:50.018Z,15.43
2023-02-04T05:04:16.448Z,12.67
2023-02-04T05:06:42.860Z,17.27
2023-02-04T05:09:09.735Z,15.27
2023-02-04T05:11:36.134Z,15.07
2023-02-04T05:14:02.575Z,11.40
2023-02-04T05:16:29.121Z,20.70
2023-02-04T05:18:55.648Z,19.87
2023-02-04T05:21:22.082Z,17.20
2023-02-04T05:23:48.476Z,13.67
2023-02-04T05:26:25.127Z,14.53
2023-02-04T05:28:55.894Z,14.33
2023-02-04T05:31:22.359Z,15.87
2023-02-04T05:33:48.838Z,13.20
2023-02-04T05:36:15.293Z,14.10
2023-02-04T05:38:41.779Z,16.93
2023-02-04T05:41:08.162Z,11.23
2023-02-04T05:43:35.217Z,14.93
2023-02-04T05:46:02.724Z,14.70
2023-02-04T05:48:29.177Z,16.67
2023-02-04T05:50:55.617Z,11.80
2023-02-04T05:53:22.004Z,18.13
2023-02-04T05:55:48.502Z,12.00
2023-02-04T05:58:14.894Z,11.57
2023-02-04T06:00:41.360Z,19.13
2023-02-04T06:03:07.760Z,14.00
2023-02-04T06:05:34.275Z,13.33
2023-02-04T06:08:00.689Z,18.70
2023-02-04T06:10:27.117Z,16.90
2023-02-04T06:12:53.510Z,16.73
2023-02-04T06:15:20.488Z,18.03
2023-02-04T06:17:46.878Z,18.03
2023-02-04T06:20:14.830Z,24.90
2023-02-04T06:22:41.259Z,13.90
2023-02-04T06:25:07.999Z,22.43
2023-02-04T06:27:34.461Z,18.70
2023-02-04T06:30:00.877Z,16.80
2023-02-04T06:32:27.327Z,24.67
2023-02-04T06:34:53.738Z,12.60
2023-02-04T06:37:20.367Z,18.60
2023-02-04T06:39:46.779Z,12.03
2023-02-04T06:42:13.184Z,16.50
2023-02-04T06:44:39.641Z,14.77
2023-02-04T06:47:06.042Z,17.40
2023-02-04T06:49:32.485Z,18.13
2023-02-04T06:51:58.914Z,18.43
2023-02-04T06:54:25.385Z,18.10
2023-02-04T06:56:51.826Z,17.37
2023-02-04T06:59:18.442Z,17.90
2023-02-04T07:01:45.120Z,14.37
2023-02-04T07:04:11.543Z,18.77
2023-02-04T07:06:37.939Z,21.50
2023-02-04T07:09:04.467Z,18.10
2023-02-04T07:11:30.905Z,16.07
2023-02-04T07:13:57.448Z,17.90
2023-02-04T07:16:23.857Z,15.27
2023-02-04T07:18:50.285Z,20.87
2023-02-04T07:21:16.649Z,14.93
2023-02-04T07:23:43.060Z,27.53
2023-02-04T07:26:09.486Z,12.53
2023-02-04T07:28:36.958Z,18.53
2023-02-04T07:31:03.676Z,14.17
2023-02-04T07:33:30.241Z,24.13
2023-02-04T07:35:56.654Z,16.30
2023-02-04T07:38:23.096Z,16.03
2023-02-04T07:40:49.559Z,14.00
2023-02-04T07:43:15.966Z,17.67
2023-02-04T07:45:42.352Z,21.40
2023-02-04T07:48:08.748Z,21.60
2023-02-04T07:50:35.444Z,17.17
2023-02-04T07:53:02.122Z,17.53
2023-02-04T07:55:28.684Z,14.73
2023-02-04T07:57:58.328Z,14.03
2023-02-04T08:00:24.775Z,17.53
2023-02-04T08:02:51.335Z,20.70
2023-02-04T08:05:18.143Z,25.60
2023-02-04T08:07:44.646Z,18.47
2023-02-04T08:10:11.983Z,13.83
2023-02-04T08:12:38.487Z,20.67
2023-02-04T08:15:07.784Z,15.70
2023-02-04T08:17:34.522Z,19.87
2023-02-04T08:20:00.990Z,18.77
2023-02-04T08:22:27.396Z,24.07
2023-02-04T08:24:53.842Z,16.40
2023-02-04T08:27:20.437Z,19.47
2023-02-04T08:29:46.843Z,17.17
2023-02-04T08:32:13.487Z,17.07
2023-02-04T08:34:40.249Z,12.33
2023-02-04T08:37:06.734Z,17.63
2023-02-04T08:39:33.292Z,23.93
2023-02-04T08:41:59.720Z,18.43
2023-02-04T08:44:26.166Z,21.23
2023-02-04T08:46:52.626Z,24.23
2023-02-04T08:49:19.111Z,19.17
2023-02-04T08:51:45.640Z,19.00
2023-02-04T08:54:12.102Z,16.90
2023-02-04T08:56:38.517Z,26.10
2023-02-04T08:59:04.946Z,17.70
2023-02-04T09:01:31.388Z,16.93
2023-02-04T09:03:58.204Z,18.90
2023-02-04T09:06:24.604Z,19.23
2023-02-04T09:08:50.998Z,19.90
2023-02-04T09:11:17.441Z,19.93
2023-02-04T09:13:43.902Z,20.90
2023-02-04T09:16:10.838Z,20.17
2023-02-04T09:18:37.402Z,21.10
2023-02-04T09:21:03.999Z,24.63
2023-02-04T09:23:30.465Z,22.63
2023-02-04T09:25:56.974Z,25.97
2023-02-04T09:28:23.329Z,22.43
2023-02-04T09:30:49.774Z,24.33
2023-02-04T09:33:19.264Z,19.10
2023-02-04T09:35:45.693Z,30.80
2023-02-04T09:38:12.122Z,20.93
2023-02-04T09:40:43.189Z,24.90
2023-02-04T09:43:17.794Z,26.87
2023-02-04T09:45:44.351Z,24.67
2023-02-04T09:48:14.109Z,22.83
2023-02-04T09:50:41.624Z,21.60
2023-02-04T09:53:13.971Z,29.07
2023-02-04T09:55:43.211Z,21.00
2023-02-04T09:58:21.942Z,24.43
2023-02-04T10:00:56.580Z,26.50
2023-02-04T10:03:23.295Z,24.77
2023-02-04T10:05:51.443Z,22.07
2023-02-04T10:08:20.824Z,23.13
2023-02-04T10:10:49.575Z,27.47
2023-02-04T10:13:23.727Z,26.70
2023-02-04T10:15:51.074Z,27.73
2023-02-04T10:18:26.725Z,30.50
2023-02-04T10:21:00.827Z,24.17
2023-02-04T10:23:27.289Z,24.17
2023-02-04T10:25:53.710Z,34.97
2023-02-04T10:28:20.201Z,29.60
2023-02-04T10:30:47.164Z,22.30
2023-02-04T10:33:15.337Z,22.10
2023-02-04T10:35:51.234Z,24.70
2023-02-04T10:38:18.280Z,27.03
2023-02-04T10:40:46.147Z,29.47
2023-02-04T10:43:22.726Z,31.50
2023-02-04T10:45:58.105Z,31.23
2023-02-04T10:48:25.299Z,28.20
2023-02-04T10:50:51.871Z,26.47
2023-02-04T10:53:39.180Z,23.23
2023-02-04T10:56:15.885Z,20.40
2023-02-04T10:58:42.858Z,23.73
2023-02-04T11:01:11.994Z,21.70
2023-02-04T11:03:40.033Z,29.57
2023-02-04T11:06:17.717Z,23.93
2023-02-04T11:08:44.308Z,21.80
2023-02-04T11:11:20.163Z,16.63
2023-02-04T11:13:49.470Z,15.63
2023-02-04T11:16:18.823Z,19.77
2023-02-04T11:18:51.390Z,17.87
2023-02-04T11:21:23.774Z,21.30
2023-02-04T11:23:51.025Z,24.80
2023-02-04T11:26:33.727Z,21.10
2023-02-04T11:29:00.061Z,16.40
2023-02-04T11:31:28.678Z,15.40
2023-02-04T11:34:18.376Z,17.50
2023-02-04T11:37:04.429Z,22.90
2023-02-04T11:39:47.928Z,17.13
2023-02-04T11:42:29.747Z,16.40
2023-02-04T11:45:00.784Z,15.77
2023-02-04T11:47:33.669Z,22.57
2023-02-04T11:50:04.351Z,21.43
2023-02-04T11:52:30.882Z,21.23
2023-02-04T11:55:00.349Z,15.80
2023-02-04T11:57:27.298Z,18.57
2023-02-04T11:59:54.560Z,20.30
2023-02-04T12:02:23.757Z,18.10
2023-02-04T12:05:09.221Z,14.97
2023-02-04T12:07:36.286Z,19.27
2023-02-04T12:10:21.894Z,24.13
2023-02-04T12:12:55.795Z,20.67
2023-02-04T12:15:24.952Z,16.57
2023-02-04T12:18:04.788Z,13.73
2023-02-04T12:20:31.234Z,18.03
2023-02-04T12:22:57.766Z,16.80
2023-02-04T12:25:24.973Z,22.93
2023-02-04T12:27:51.758Z,23.13
2023-02-04T12:30:18.563Z,23.20
2023-02-04T12:32:44.939Z,16.43
2023-02-04T12:35:11.475Z,23.07
2023-02-04T12:37:37.934Z,21.73
2023-02-04T12:40:04.811Z,19.40
2023-02-04T12:42:31.201Z,16.43
2023-02-04T12:44:57.626Z,21.30
2023-02-04T12:47:24.045Z,27.07
2023-02-04T12:49:50.421Z,12.70
2023-02-04T12:52:16.835Z,21.30
2023-02-04T12:54:43.740Z,15.67
2023-02-04T12:57:11.565Z,19.37
2023-02-04T12:59:37.977Z,23.13
2023-02-04T13:02:04.435Z,24.80
2023-02-04T13:04:30.846Z,27.60
2023-02-04T13:06:57.190Z,19.50
2023-02-04T13:09:23.610Z,18.10
2023-02-04T13:11:50.058Z,18.50
2023-02-04T13:14:16.496Z,19.77
2023-02-04T13:16:42.892Z,17.07
2023-02-04T13:19:09.346Z,19.03
2023-02-04T13:21:35.778Z,19.70
2023-02-04T13:24:02.212Z,19.53
2023-02-04T13:26:28.583Z,18.63
2023-02-04T13:28:54.990Z,27.70
2023-02-04T13:31:21.544Z,23.23
2023-02-04T13:33:47.965Z,16.73
2023-02-04T13:36:14.395Z,23.80
2023-02-04T13:38:40.824Z,15.10
2023-02-04T13:41:07.266Z,18.90
2023-02-04T13:43:33.678Z,15.33
2023-02-04T13:46:01.907Z,19.67
2023-02-04T13:48:28.324Z,20.20
2023-02-04T13:50:54.743Z,23.70
2023-02-04T13:53:21.202Z,20.93
2023-02-04T13:55:47.613Z,14.90
2023-02-04T13:58:14.158Z,14.90
2023-02-04T14:00:40.627Z,17.40
2023-02-04T14:03:07.020Z,19.70
2023-02-04T14:05:33.444Z,14.90
2023-02-04T14:07:59.898Z,19.60
2023-02-04T14:10:27.104Z,19.77
2023-02-04T14:12:54.091Z,35.60
2023-02-04T14:15:20.625Z,23.03
2023-02-04T14:17:47.073Z,24.13
2023-02-04T14:20:13.519Z,18.00
2023-02-04T14:22:40.005Z,15.60
2023-02-04T14:25:06.904Z,21.10
2023-02-04T14:27:35.314Z,15.27
2023-02-04T14:30:01.809Z,15.27
2023-02-04T14:32:28.275Z,13.13
2023-02-04T14:34:54.774Z,19.67
2023-02-04T14:37:21.210Z,22.30
2023-02-04T14:39:47.580Z,19.87
2023-02-04T14:42:13.971Z,12.80
2023-02-04T14:44:40.384Z,10.03
2023-02-04T14:47:06.838Z,14.70
2023-02-04T14:49:34.826Z,14.80
2023-02-04T14:52:01.338Z,14.50
2023-02-04T14:54:27.774Z,20.83
2023-02-04T14:56:54.519Z,13.93
2023-02-04T14:59:21.146Z,17.40
2023-02-04T15:01:47.586Z,15.00
2023-02-04T15:04:14.042Z,11.33
2023-02-04T15:06:40.592Z,13.53
2023-02-04T15:09:07.114Z,13.60
2023-02-04T15:11:34.568Z,17.10
2023-02-04T15:14:01.009Z,17.47
2023-02-04T15:16:27.449Z,19.17
2023-02-04T15:18:54.049Z,22.27
2023-02-04T15:21:20.485Z,14.93
2023-02-04T15:23:47.466Z,13.50
2023-02-04T15:26:14.483Z,17.37
2023-02-04T15:28:41.003Z,19.10
2023-02-04T15:31:07.600Z,15.73
2023-02-04T15:33:34.029Z,17.27
2023-02-04T15:36:00.416Z,18.57
2023-02-04T15:38:26.850Z,15.63
2023-02-04T15:40:53.262Z,11.93
2023-02-04T15:43:19.951Z,14.13
2023-02-04T15:45:46.414Z,18.70
2023-02-04T15:48:12.814Z,13.13
2023-02-04T15:50:39.550Z,17.70
2023-02-04T15:53:06.700Z,16.83
2023-02-04T15:55:33.170Z,18.77
2023-02-04T15:57:59.579Z,20.27
2023-02-04T16:00:26.097Z,19.03
2023-02-04T16:02:52.518Z,21.60
2023-02-04T16:05:19.070Z,21.57
2023-02-04T16:07:45.509Z,32.03
2023-02-04T16:10:11.994Z,18.30
2023-02-04T16:12:38.480Z,20.20
2023-02-04T16:15:05.520Z,25.10
2023-02-04T16:17:32.024Z,32.07
2023-02-04T16:19:58.506Z,34.30
2023-02-04T16:22:25.045Z,22.43
2023-02-04T16:24:52.857Z,23.30
2023-02-04T16:27:19.876Z,19.43
2023-02-04T16:29:47.132Z,19.60
2023-02-04T16:32:13.905Z,22.10
2023-02-04T16:34:40.368Z,27.83
2023-02-04T16:37:06.950Z,15.60
2023-02-04T16:39:33.427Z,15.40
2023-02-04T16:41:59.955Z,19.90
2023-02-04T16:44:26.346Z,18.63
2023-02-04T16:46:52.728Z,18.40
2023-02-04T16:49:19.116Z,21.50
2023-02-04T16:51:45.662Z,16.47
2023-02-04T16:54:12.183Z,21.90
2023-02-04T16:56:38.599Z,16.07
2023-02-04T16:59:05.239Z,19.47
2023-02-04T17:01:31.998Z,24.57
2023-02-04T17:03:58.371Z,15.07
2023-02-04T17:06:26.714Z,19.50
2023-02-04T17:08:53.231Z,17.50
2023-02-04T17:11:29.028Z,12.73
2023-02-04T17:13:56.552Z,19.77
2023-02-04T17:16:23.008Z,15.60
2023-02-04T17:18:49.499Z,15.63
2023-02-04T17:21:17.347Z,15.43
2023-02-04T17:23:44.649Z,16.10
2023-02-04T17:26:11.167Z,24.30
2023-02-04T17:28:37.574Z,15.50
2023-02-04T17:31:04.286Z,19.50
2023-02-04T17:33:30.949Z,13.07
2023-02-04T17:35:57.328Z,14.60
2023-02-04T17:38:26.380Z,10.80
2023-02-04T17:40:55.816Z,18.57
2023-02-04T17:43:23.694Z,18.60
2023-02-04T17:45:51.085Z,17.00
2023-02-04T17:48:17.983Z,21.40
2023-02-04T17:50:44.868Z,17.27
2023-02-04T17:53:11.440Z,16.23
2023-02-04T17:55:39.425Z,17.97
2023-02-04T17:58:16.833Z,12.50
2023-02-04T18:00:45.779Z,15.37
2023-02-04T18:03:19.364Z,19.93
2023-02-04T18:05:48.451Z,21.77
2023-02-04T18:08:24.706Z,17.20
2023-02-04T18:10:53.994Z,20.90
2023-02-04T18:13:32.812Z,16.40
2023-02-04T18:16:02.870Z,15.53
2023-02-04T18:18:36.534Z,14.30
2023-02-04T18:21:19.035Z,15.80
2023-02-04T18:23:46.055Z,22.60
2023-02-04T18:26:25.783Z,21.03
2023-02-04T18:28:52.644Z,16.93
2023-02-04T18:31:39.309Z,15.87
2023-02-04T18:34:20.927Z,21.97
2023-02-04T18:36:48.252Z,24.07
2023-02-04T18:39:34.894Z,28.33
2023-02-04T18:42:01.301Z,23.60
2023-02-04T18:44:37.936Z,22.90
2023-02-04T18:47:23.890Z,22.10
2023-02-04T18:49:50.435Z,34.10
2023-02-04T18:52:21.327Z,19.77
2023-02-04T18:55:18.276Z,16.87
2023-02-04T18:57:44.746Z,18.43
2023-02-04T19:00:14.551Z,19.10
2023-02-04T19:02:48.333Z,17.13
2023-02-04T19:05:47.493Z,17.23
2023-02-04T19:08:29.218Z,17.50
2023-02-04T19:10:57.968Z,19.33
2023-02-04T19:13:36.406Z,20.27
2023-02-04T19:16:23.312Z,23.03
2023-02-04T19:18:50.947Z,21.23
2023-02-04T19:21:28.579Z,19.20
2023-02-04T19:24:01.108Z,22.33
2023-02-04T19:26:40.163Z,19.40
2023-02-04T19:29:24.901Z,21.50
2023-02-04T19:31:58.511Z,20.67
2023-02-04T19:34:28.527Z,18.33
2023-02-04T19:36:55.280Z,16.60
2023-02-04T19:39:40.204Z,19.80
2023-02-04T19:42:32.809Z,20.90
2023-02-04T19:45:16.976Z,18.90
2023-02-04T19:47:44.757Z,19.63
2023-02-04T19:50:13.851Z,18.30
2023-02-04T19:53:09.284Z,25.83
2023-02-04T19:55:44.174Z,32.10
2023-02-04T19:58:24.858Z,21.53
2023-02-04T20:01:04.840Z,24.67
2023-02-04T20:03:42.069Z,21.13
2023-02-04T20:06:18.243Z,22.50
2023-02-04T20:08:46.850Z,18.40
2023-02-04T20:11:37.993Z,18.23
2023-02-04T20:14:10.469Z,22.37
2023-02-04T20:17:18.408Z,25.87
2023-02-04T20:19:45.452Z,22.03
2023-02-04T20:22:32.029Z,25.93
2023-02-04T20:25:26.142Z,18.77
2023-02-04T20:27:55.464Z,20.80
2023-02-04T20:30:26.957Z,19.40
2023-02-04T20:32:56.699Z,22.10
2023-02-04T20:35:23.021Z,20.10
2023-02-04T20:37:52.719Z,21.57
2023-02-04T20:40:23.838Z,18.27
2023-02-04T20:43:01.526Z,25.07
2023-02-04T20:45:36.505Z,24.13
2023-02-04T20:48:15.165Z,26.60
2023-02-04T20:50:52.823Z,28.30
2023-02-04T20:53:36.699Z,31.93
2023-02-04T20:56:28.625Z,24.23
2023-02-04T20:59:23.749Z,28.47
2023-02-04T21:01:50.585Z,26.87
2023-02-04T21:04:25.884Z,22.10
2023-02-04T21:06:54.824Z,25.70
2023-02-04T21:09:25.466Z,22.13
2023-02-04T21:11:54.121Z,21.83
2023-02-04T21:14:21.713Z,23.23
2023-02-04T21:16:48.419Z,20.77
2023-02-04T21:19:15.841Z,19.23
2023-02-04T21:21:42.470Z,19.93
2023-02-04T21:24:09.461Z,22.27
2023-02-04T21:26:35.964Z,23.80
2023-02-04T21:29:02.555Z,18.63
2023-02-04T21:31:29.381Z,15.87
2023-02-04T21:33:56.966Z,17.63
2023-02-04T21:36:24.400Z,19.00
2023-02-04T21:38:51.128Z,17.60
2023-02-04T21:41:17.704Z,18.43
2023-02-04T21:43:44.104Z,22.03
2023-02-04T21:46:10.580Z,20.83
2023-02-04T21:48:37.002Z,23.57
2023-02-04T21:51:03.524Z,19.27
2023-02-04T21:53:29.995Z,22.17
2023-02-04T21:55:59.045Z,20.20
2023-02-04T21:58:28.625Z,29.03
2023-02-04T22:00:55.148Z,22.53
2023-02-04T22:03:21.669Z,20.43
2023-02-04T22:05:48.217Z,16.87
2023-02-04T22:08:14.828Z,18.60
2023-02-04T22:10:41.544Z,30.83
2023-02-04T22:13:08.067Z,25.73
2023-02-04T22:15:34.976Z,24.33
2023-02-04T22:18:02.400Z,24.57
2023-02-04T22:20:30.447Z,26.83
2023-02-04T22:22:59.237Z,30.50
2023-02-04T22:25:25.802Z,30.30
2023-02-04T22:27:52.482Z,26.30
2023-02-04T22:30:19.925Z,27.17
2023-02-04T22:32:46.550Z,24.80
2023-02-04T22:35:14.263Z,25.97
2023-02-04T22:37:41.881Z,22.33
2023-02-04T22:40:10.121Z,34.80
2023-02-04T22:42:36.551Z,25.93
2023-02-04T22:45:03.977Z,27.60
2023-02-04T22:47:30.965Z,20.77
2023-02-04T22:49:57.617Z,23.47
2023-02-04T22:52:24.402Z,22.83
2023-02-04T22:54:51.685Z,30.57
2023-02-04T22:57:18.456Z,24.87
2023-02-04T22:59:44.913Z,24.33
2023-02-04T23:02:11.432Z,23.10
2023-02-04T23:04:37.858Z,27.63
2023-02-04T23:07:04.773Z,28.00
2023-02-04T23:09:32.879Z,20.30
2023-02-04T23:12:12.537Z,26.37
2023-02-04T23:14:45.546Z,18.37
2023-02-04T23:17:13.252Z,21.03
2023-02-04T23:19:40.209Z,27.40
2023-02-04T23:22:08.146Z,20.47
2023-02-04T23:24:35.735Z,22.40
2023-02-04T23:27:04.094Z,24.00
2023-02-04T23:29:35.471Z,24.90
2023-02-04T23:32:02.424Z,22.00
2023-02-04T23:34:28.983Z,24.97
2023-02-04T23:36:55.425Z,29.77
2023-02-04T23:39:22.243Z,30.70
2023-02-04T23:41:49.402Z,23.00
2023-02-04T23:44:16.270Z,26.57
2023-02-04T23:46:43.113Z,26.43
2023-02-04T23:49:10.099Z,28.00
2023-02-04T23:51:36.711Z,25.73
2023-02-04T23:54:03.433Z,22.43
2023-02-04T23:56:30.258Z,22.23
2023-02-04T23:58:56.722Z,25.40
